createdAt,value
2024-03-09T00:00:41.613Z,1.49
2024-03-09T00:03:11.132Z,1.60
2024-03-09T00:05:40.638Z,1.48
2024-03-09T00:08:08.479Z,1.44
2024-03-09T00:10:35.061Z,1.44
2024-03-09T00:13:02.618Z,1.46
2024-03-09T00:15:29.663Z,1.40
2024-03-09T00:17:57.694Z,1.40
2024-03-09T00:20:38.047Z,1.36
2024-03-09T00:23:07.658Z,1.33
2024-03-09T00:25:35.562Z,1.32
2024-03-09T00:28:02.091Z,1.29
2024-03-09T00:30:32.391Z,1.29
2024-03-09T00:33:00.505Z,1.28
2024-03-09T00:35:31.302Z,1.27
2024-03-09T00:37:59.345Z,1.26
2024-03-09T00:40:29.815Z,1.24
2024-03-09T00:42:58.145Z,1.23
2024-03-09T00:45:25.323Z,1.27
2024-03-09T00:47:51.970Z,1.20
2024-03-09T00:50:18.766Z,1.20
2024-03-09T00:52:46.607Z,1.20
2024-03-09T00:55:15.504Z,1.15
2024-03-09T00:57:43.786Z,1.19
2024-03-09T01:00:12.158Z,1.17
2024-03-09T01:02:44.081Z,1.11
2024-03-09T01:05:11.760Z,1.11
2024-03-09T01:07:39.347Z,1.06
2024-03-09T01:10:07.387Z,1.02
2024-03-09T01:12:35.003Z,1.01
2024-03-09T01:15:02.611Z,1.02
2024-03-09T01:17:29.248Z,0.97
2024-03-09T01:19:56.566Z,0.97
2024-03-09T01:22:23.734Z,0.98
2024-03-09T01:24:51.028Z,0.91
2024-03-09T01:27:18.300Z,0.90
2024-03-09T01:29:50.692Z,0.90
2024-03-09T01:32:17.423Z,0.89
2024-03-09T01:34:45.437Z,0.97
2024-03-09T01:37:12.055Z,0.88
2024-03-09T01:39:39.727Z,0.88
2024-03-09T01:42:09.549Z,0.88
2024-03-09T01:44:36.540Z,0.85
2024-03-09T01:47:10.233Z,0.83
2024-03-09T01:49:37.850Z,0.81
2024-03-09T01:52:06.316Z,0.81
2024-03-09T01:54:35.731Z,0.78
2024-03-09T01:57:02.671Z,0.75
2024-03-09T01:59:31.025Z,0.74
2024-03-09T02:01:58.753Z,0.70
2024-03-09T02:04:29.079Z,0.70
2024-03-09T02:07:23.400Z,0.79
2024-03-09T02:09:49.974Z,0.60
2024-03-09T02:12:19.279Z,0.54
2024-03-09T02:14:46.086Z,0.53
2024-03-09T02:17:13.536Z,0.46
2024-03-09T02:19:41.571Z,0.50
2024-03-09T02:22:11.293Z,0.46
2024-03-09T02:24:42.403Z,0.47
2024-03-09T02:27:09.401Z,0.40
2024-03-09T02:29:35.868Z,0.40
2024-03-09T02:32:02.973Z,0.34
2024-03-09T02:34:29.716Z,0.34
2024-03-09T02:36:56.180Z,0.30
2024-03-09T02:39:24.649Z,0.25
2024-03-09T02:41:51.247Z,0.26
2024-03-09T02:44:18.402Z,0.23
2024-03-09T02:46:45.587Z,0.27
2024-03-09T02:49:12.137Z,0.17
2024-03-09T02:51:38.736Z,0.14
2024-03-09T02:54:05.486Z,0.16
2024-03-09T02:56:31.949Z,0.10
2024-03-09T02:59:00.001Z,0.08
2024-03-09T03:01:28.124Z,0.01
2024-03-09T03:04:00.013Z,0.05
2024-03-09T03:06:29.588Z,-0.04
2024-03-09T03:09:00.270Z,-0.07
2024-03-09T03:11:27.074Z,-0.08
2024-03-09T03:13:53.972Z,-0.11
2024-03-09T03:16:27.101Z,-0.15
2024-03-09T03:18:54.282Z,-0.18
2024-03-09T03:21:20.714Z,-0.22
2024-03-09T03:23:49.999Z,-0.21
2024-03-09T03:26:17.922Z,-0.25
2024-03-09T03:28:45.989Z,-0.30
2024-03-09T03:31:15.610Z,-0.31
2024-03-09T03:33:42.305Z,-0.32
2024-03-09T03:36:15.053Z,-0.36
2024-03-09T03:38:45.295Z,-0.34
2024-03-09T03:41:12.102Z,-0.41
2024-03-09T03:43:39.350Z,-0.37
2024-03-09T03:46:07.365Z,-0.46
2024-03-09T03:48:34.598Z,-0.50
2024-03-09T03:51:00.983Z,-0.49
2024-03-09T03:53:27.934Z,-0.53
2024-03-09T03:55:54.558Z,-0.54
2024-03-09T03:58:24.042Z,-0.55
2024-03-09T04:00:51.052Z,-0.57
2024-03-09T04:03:17.861Z,-0.58
2024-03-09T04:05:45.454Z,-0.59
2024-03-09T04:08:12.259Z,-0.61
2024-03-09T04:10:39.002Z,-0.60
2024-03-09T04:13:06.380Z,-0.64
2024-03-09T04:15:33.739Z,-0.63
2024-03-09T04:18:04.686Z,-0.64
2024-03-09T04:20:35.146Z,-0.66
2024-03-09T04:23:06.152Z,-0.66
2024-03-09T04:25:36.899Z,-0.67
2024-03-09T04:28:04.305Z,-0.63
2024-03-09T04:30:34.166Z,-0.67
2024-03-09T04:33:07.040Z,-0.71
2024-03-09T04:35:35.235Z,-0.69
2024-03-09T04:38:03.184Z,-0.71
2024-03-09T04:40:30.603Z,-0.69
2024-03-09T04:42:57.402Z,-0.72
2024-03-09T04:45:26.156Z,-0.72
2024-03-09T04:47:53.774Z,-0.70
2024-03-09T04:50:20.911Z,-0.73
2024-03-09T04:52:52.148Z,-0.73
2024-03-09T04:55:30.169Z,-0.73
2024-03-09T04:57:57.304Z,-0.73
2024-03-09T05:00:26.049Z,-0.72
2024-03-09T05:02:53.204Z,-0.72
2024-03-09T05:05:20.315Z,-0.72
2024-03-09T05:07:49.217Z,-0.75
2024-03-09T05:10:20.604Z,-0.75
2024-03-09T05:12:57.482Z,-0.75
2024-03-09T05:15:30.458Z,-0.74
2024-03-09T05:17:59.782Z,-0.73
2024-03-09T05:20:27.281Z,-0.73
2024-03-09T05:22:55.641Z,-0.72
2024-03-09T05:25:23.048Z,-0.75
2024-03-09T05:27:50.655Z,-0.75
2024-03-09T05:30:19.863Z,-0.75
2024-03-09T05:32:58.408Z,-0.76
2024-03-09T05:35:30.291Z,-0.73
2024-03-09T05:38:00.120Z,-0.74
2024-03-09T05:40:32.836Z,-0.77
2024-03-09T05:43:05.449Z,-0.75
2024-03-09T05:45:32.108Z,-0.75
2024-03-09T05:48:00.079Z,-0.75
2024-03-09T05:50:31.846Z,-0.74
2024-03-09T05:53:01.646Z,-0.75
2024-03-09T05:55:29.142Z,-0.75
2024-03-09T05:57:57.078Z,-0.74
2024-03-09T06:00:30.183Z,-0.68
2024-03-09T06:02:58.482Z,-0.68
2024-03-09T06:05:32.228Z,-0.64
2024-03-09T06:07:59.756Z,-0.63
2024-03-09T06:10:27.417Z,-0.62
2024-03-09T06:12:55.049Z,-0.60
2024-03-09T06:15:26.000Z,-0.61
2024-03-09T06:18:00.154Z,-0.59
2024-03-09T06:20:28.256Z,-0.59
2024-03-09T06:22:56.980Z,-0.57
2024-03-09T06:25:24.902Z,-0.55
2024-03-09T06:27:53.758Z,-0.57
2024-03-09T06:30:20.904Z,-0.56
2024-03-09T06:32:50.452Z,-0.51
2024-03-09T06:35:20.343Z,-0.50
2024-03-09T06:38:02.729Z,-0.46
2024-03-09T06:40:34.136Z,-0.44
2024-03-09T06:43:08.383Z,-0.41
2024-03-09T06:45:37.460Z,-0.35
2024-03-09T06:48:07.291Z,-0.30
2024-03-09T06:50:36.970Z,-0.25
2024-03-09T06:53:04.779Z,-0.19
2024-03-09T06:55:31.439Z,-0.13
2024-03-09T06:58:03.074Z,-0.09
2024-03-09T07:00:31.660Z,-0.10
2024-03-09T07:03:01.560Z,-0.02
2024-03-09T07:05:28.978Z,0.09
2024-03-09T07:07:59.736Z,0.14
2024-03-09T07:10:28.490Z,0.19
2024-03-09T07:12:55.416Z,0.28
2024-03-09T07:15:23.369Z,0.32
2024-03-09T07:17:51.086Z,0.51
2024-03-09T07:20:19.238Z,0.49
2024-03-09T07:22:50.859Z,0.76
2024-03-09T07:25:20.470Z,0.92
2024-03-09T07:27:49.424Z,1.10
2024-03-09T07:30:16.060Z,1.39
2024-03-09T07:32:50.329Z,1.41
2024-03-09T07:35:21.438Z,1.51
2024-03-09T07:37:56.556Z,1.84
2024-03-09T07:40:25.670Z,1.96
2024-03-09T07:42:56.417Z,2.08
2024-03-09T07:45:24.627Z,2.62
2024-03-09T07:47:51.768Z,2.54
2024-03-09T07:50:23.639Z,2.54
2024-03-09T07:52:55.613Z,2.71
2024-03-09T07:55:25.605Z,3.20
2024-03-09T07:58:09.072Z,2.83
2024-03-09T08:00:45.226Z,3.37
2024-03-09T08:03:13.363Z,3.14
2024-03-09T08:05:39.909Z,2.84
2024-03-09T08:08:11.096Z,2.68
2024-03-09T08:10:40.399Z,3.04
2024-03-09T08:13:06.865Z,3.04
2024-03-09T08:15:33.758Z,3.89
2024-03-09T08:18:00.386Z,3.82
2024-03-09T08:20:28.002Z,3.50
2024-03-09T08:22:55.387Z,3.58
2024-03-09T08:25:26.652Z,4.84
2024-03-09T08:27:55.804Z,4.77
2024-03-09T08:30:22.424Z,4.85
2024-03-09T08:32:51.835Z,4.47
2024-03-09T08:35:20.230Z,4.48
2024-03-09T08:37:47.885Z,3.75
2024-03-09T08:40:18.717Z,4.44
2024-03-09T08:42:50.938Z,4.20
2024-03-09T08:45:17.418Z,4.29
2024-03-09T08:47:43.966Z,4.25
2024-03-09T08:50:13.839Z,4.73
2024-03-09T08:52:41.385Z,5.06
2024-03-09T08:55:11.056Z,5.77
2024-03-09T08:57:38.325Z,5.63
2024-03-09T09:00:06.494Z,5.99
2024-03-09T09:02:34.005Z,5.82
2024-03-09T09:05:01.501Z,5.59
2024-03-09T09:07:28.506Z,5.27
2024-03-09T09:09:54.949Z,5.99
2024-03-09T09:12:21.334Z,6.86
2024-03-09T09:14:48.166Z,6.19
2024-03-09T09:17:14.701Z,6.51
2024-03-09T09:19:41.244Z,7.02
2024-03-09T09:22:08.603Z,7.02
2024-03-09T09:24:35.331Z,6.89
2024-03-09T09:27:01.730Z,7.00
2024-03-09T09:29:31.461Z,7.25
2024-03-09T09:32:01.797Z,6.72
2024-03-09T09:34:34.857Z,6.43
2024-03-09T09:37:01.546Z,6.65
2024-03-09T09:39:34.076Z,7.46
2024-03-09T09:42:01.205Z,6.95
2024-03-09T09:44:29.270Z,7.15
2024-03-09T09:47:00.540Z,7.25
2024-03-09T09:49:27.531Z,7.12
2024-03-09T09:51:58.629Z,7.20
2024-03-09T09:54:28.089Z,8.35
2024-03-09T09:56:57.382Z,8.77
2024-03-09T09:59:25.076Z,8.35
2024-03-09T10:01:52.052Z,9.92
2024-03-09T10:04:18.678Z,9.75
2024-03-09T10:06:46.199Z,8.58
2024-03-09T10:09:25.766Z,9.15
2024-03-09T10:11:52.254Z,8.27
2024-03-09T10:14:28.730Z,9.14
2024-03-09T10:16:55.661Z,8.25
2024-03-09T10:19:22.278Z,7.92
2024-03-09T10:21:52.988Z,7.93
2024-03-09T10:24:19.821Z,7.94
2024-03-09T10:26:46.734Z,8.28
2024-03-09T10:29:16.988Z,8.42
2024-03-09T10:31:44.686Z,8.27
2024-03-09T10:34:14.140Z,7.53
2024-03-09T10:36:41.023Z,8.48
2024-03-09T10:39:08.233Z,9.02
2024-03-09T10:41:36.824Z,9.34
2024-03-09T10:44:04.438Z,9.28
2024-03-09T10:46:33.588Z,8.78
2024-03-09T10:49:00.249Z,8.46
2024-03-09T10:51:26.884Z,9.15
2024-03-09T10:54:08.267Z,9.00
2024-03-09T10:56:35.817Z,9.78
2024-03-09T10:59:02.478Z,9.74
2024-03-09T11:01:29.186Z,9.02
2024-03-09T11:03:55.607Z,8.78
2024-03-09T11:06:23.261Z,8.97
2024-03-09T11:08:54.670Z,9.54
2024-03-09T11:11:26.391Z,9.55
2024-03-09T11:13:53.038Z,8.67
2024-03-09T11:16:22.495Z,8.73
2024-03-09T11:18:54.950Z,8.48
2024-03-09T11:21:35.921Z,8.75
2024-03-09T11:24:08.824Z,8.61
2024-03-09T11:26:57.289Z,9.25
2024-03-09T11:29:31.377Z,9.15
2024-03-09T11:31:59.953Z,9.09
2024-03-09T11:34:27.731Z,9.63
2024-03-09T11:37:02.546Z,10.02
2024-03-09T11:39:32.533Z,9.33
2024-03-09T11:42:02.019Z,9.22
2024-03-09T11:44:30.819Z,9.38
2024-03-09T11:46:58.266Z,9.07
2024-03-09T11:49:34.245Z,8.49
2024-03-09T11:52:03.931Z,7.87
2024-03-09T11:54:30.721Z,7.66
2024-03-09T11:57:00.135Z,7.75
2024-03-09T11:59:27.187Z,7.64
2024-03-09T12:02:00.660Z,7.68
2024-03-09T12:04:34.319Z,7.79
2024-03-09T12:07:09.118Z,7.77
2024-03-09T12:09:35.991Z,7.77
2024-03-09T12:12:20.646Z,8.21
2024-03-09T12:14:47.964Z,8.02
2024-03-09T12:17:16.033Z,8.14
2024-03-09T12:19:43.751Z,7.96
2024-03-09T12:22:11.379Z,7.96
2024-03-09T12:24:37.843Z,8.10
2024-03-09T12:27:04.452Z,8.34
2024-03-09T12:29:33.968Z,8.05
2024-03-09T12:32:00.602Z,7.74
2024-03-09T12:34:27.713Z,7.61
2024-03-09T12:36:55.314Z,7.80
2024-03-09T12:39:21.905Z,7.89
2024-03-09T12:41:52.715Z,7.87
2024-03-09T12:44:19.608Z,7.85
2024-03-09T12:46:46.173Z,8.02
2024-03-09T12:49:15.245Z,8.04
2024-03-09T12:51:50.001Z,7.99
2024-03-09T12:54:19.813Z,8.08
2024-03-09T12:56:49.144Z,8.25
2024-03-09T12:59:28.419Z,7.83
2024-03-09T13:01:55.973Z,7.88
2024-03-09T13:04:27.465Z,7.97
2024-03-09T13:06:56.853Z,7.85
2024-03-09T13:09:31.603Z,7.97
2024-03-09T13:11:58.645Z,7.92
2024-03-09T13:14:25.117Z,7.83
2024-03-09T13:16:51.930Z,7.70
2024-03-09T13:19:18.720Z,7.80
2024-03-09T13:21:56.128Z,7.75
2024-03-09T13:24:23.885Z,7.91
2024-03-09T13:26:54.619Z,7.93
2024-03-09T13:29:29.032Z,7.95
2024-03-09T13:31:56.464Z,8.21
2024-03-09T13:34:22.881Z,8.22
2024-03-09T13:36:49.259Z,8.10
2024-03-09T13:39:17.534Z,8.40
2024-03-09T13:41:46.050Z,8.29
2024-03-09T13:44:13.484Z,8.04
2024-03-09T13:46:42.279Z,8.13
2024-03-09T13:49:14.484Z,8.19
2024-03-09T13:51:44.675Z,8.67
2024-03-09T13:54:11.283Z,8.58
2024-03-09T13:56:38.316Z,8.53
2024-03-09T13:59:15.473Z,8.69
2024-03-09T14:01:44.577Z,8.77
2024-03-09T14:04:12.228Z,8.91
2024-03-09T14:06:55.999Z,8.55
2024-03-09T14:09:31.485Z,8.33
2024-03-09T14:11:58.191Z,8.27
2024-03-09T14:14:24.689Z,8.66
2024-03-09T14:16:51.122Z,8.83
2024-03-09T14:19:20.574Z,9.03
2024-03-09T14:21:50.373Z,8.51
2024-03-09T14:24:16.962Z,8.39
2024-03-09T14:26:45.777Z,8.78
2024-03-09T14:29:14.536Z,8.23
2024-03-09T14:31:42.261Z,8.27
2024-03-09T14:34:09.149Z,8.43
2024-03-09T14:36:35.779Z,8.57
2024-03-09T14:39:03.033Z,8.72
2024-03-09T14:41:29.519Z,8.38
2024-03-09T14:43:57.965Z,8.30
2024-03-09T14:46:25.155Z,8.43
2024-03-09T14:48:54.263Z,8.44
2024-03-09T14:51:23.593Z,8.54
2024-03-09T14:53:51.181Z,8.51
2024-03-09T14:56:18.535Z,8.62
2024-03-09T14:58:50.235Z,8.68
2024-03-09T15:01:21.234Z,8.45
2024-03-09T15:03:47.877Z,8.56
2024-03-09T15:06:18.453Z,8.69
2024-03-09T15:08:45.063Z,8.63
2024-03-09T15:11:17.826Z,8.78
2024-03-09T15:13:52.528Z,8.74
2024-03-09T15:16:23.495Z,8.48
2024-03-09T15:18:53.698Z,8.44
2024-03-09T15:21:24.471Z,8.47
2024-03-09T15:23:52.866Z,8.60
2024-03-09T15:26:20.954Z,8.61
2024-03-09T15:28:47.823Z,8.60
2024-03-09T15:31:15.885Z,8.40
2024-03-09T15:33:42.951Z,8.19
2024-03-09T15:36:11.806Z,8.28
2024-03-09T15:38:41.961Z,8.30
2024-03-09T15:41:12.798Z,8.28
2024-03-09T15:43:42.978Z,8.24
2024-03-09T15:46:12.359Z,8.43
2024-03-09T15:48:40.075Z,8.29
2024-03-09T15:51:07.597Z,8.34
2024-03-09T15:53:35.631Z,8.32
2024-03-09T15:56:02.466Z,8.54
2024-03-09T15:58:31.506Z,8.32
2024-03-09T16:01:04.029Z,8.39
2024-03-09T16:03:32.796Z,8.63
2024-03-09T16:06:03.343Z,8.27
2024-03-09T16:08:29.950Z,8.19
2024-03-09T16:10:56.972Z,8.07
2024-03-09T16:13:23.509Z,8.36
2024-03-09T16:15:51.046Z,8.07
2024-03-09T16:18:18.434Z,8.04
2024-03-09T16:20:45.122Z,8.02
2024-03-09T16:23:19.185Z,7.95
2024-03-09T16:25:50.296Z,8.07
2024-03-09T16:28:18.057Z,8.01
2024-03-09T16:30:45.310Z,8.06
2024-03-09T16:33:15.220Z,8.31
2024-03-09T16:35:45.408Z,8.22
2024-03-09T16:38:12.005Z,8.25
2024-03-09T16:40:40.299Z,8.26
2024-03-09T16:43:08.853Z,8.34
2024-03-09T16:45:35.686Z,8.41
2024-03-09T16:48:07.361Z,8.39
2024-03-09T16:50:34.508Z,8.30
2024-03-09T16:53:01.198Z,8.21
2024-03-09T16:55:31.218Z,8.11
2024-03-09T16:58:02.573Z,8.07
2024-03-09T17:00:29.458Z,8.04
2024-03-09T17:02:55.897Z,7.93
2024-03-09T17:05:27.811Z,8.07
2024-03-09T17:07:55.539Z,8.10
2024-03-09T17:10:22.076Z,7.94
2024-03-09T17:12:50.782Z,7.88
2024-03-09T17:15:20.037Z,7.99
2024-03-09T17:17:49.143Z,7.78
2024-03-09T17:20:27.196Z,7.83
2024-03-09T17:22:56.979Z,7.84
2024-03-09T17:25:23.867Z,7.88
2024-03-09T17:27:51.070Z,7.84
2024-03-09T17:30:17.654Z,7.93
2024-03-09T17:32:47.640Z,7.84
2024-03-09T17:35:23.582Z,7.88
2024-03-09T17:37:50.897Z,7.80
2024-03-09T17:40:17.939Z,7.85
2024-03-09T17:42:55.174Z,7.83
2024-03-09T17:45:27.066Z,7.78
2024-03-09T17:47:53.875Z,7.77
2024-03-09T17:50:20.724Z,7.70
2024-03-09T17:52:48.725Z,7.70
2024-03-09T17:55:20.713Z,7.78
2024-03-09T17:57:52.862Z,7.68
2024-03-09T18:00:25.648Z,7.75
2024-03-09T18:02:58.119Z,7.86
2024-03-09T18:05:29.884Z,7.72
2024-03-09T18:07:58.420Z,7.70
2024-03-09T18:10:28.556Z,7.67
2024-03-09T18:12:55.993Z,7.75
2024-03-09T18:15:24.128Z,7.70
2024-03-09T18:17:52.241Z,7.83
2024-03-09T18:20:23.963Z,7.98
2024-03-09T18:22:54.440Z,7.76
2024-03-09T18:25:21.677Z,7.83
2024-03-09T18:27:49.013Z,7.97
2024-03-09T18:30:18.668Z,7.90
2024-03-09T18:32:49.651Z,8.05
2024-03-09T18:35:23.524Z,8.04
2024-03-09T18:37:51.386Z,7.61
2024-03-09T18:40:17.909Z,7.72
2024-03-09T18:42:48.443Z,7.78
2024-03-09T18:45:15.894Z,7.56
2024-03-09T18:47:42.976Z,7.52
2024-03-09T18:50:10.443Z,7.60
2024-03-09T18:52:40.387Z,7.48
2024-03-09T18:55:12.453Z,7.48
2024-03-09T18:57:40.310Z,7.44
2024-03-09T19:00:17.182Z,7.43
2024-03-09T19:02:46.915Z,7.50
2024-03-09T19:05:24.379Z,7.52
2024-03-09T19:07:53.019Z,7.45
2024-03-09T19:10:20.092Z,7.36
2024-03-09T19:12:48.414Z,7.41
2024-03-09T19:15:15.258Z,7.33
2024-03-09T19:17:43.374Z,7.32
2024-03-09T19:20:13.305Z,7.25
2024-03-09T19:22:40.993Z,7.24
2024-03-09T19:25:11.733Z,7.26
2024-03-09T19:27:42.079Z,7.20
2024-03-09T19:30:16.684Z,7.12
2024-03-09T19:32:45.629Z,7.10
2024-03-09T19:35:16.950Z,7.05
2024-03-09T19:37:44.057Z,6.96
2024-03-09T19:40:21.840Z,6.94
2024-03-09T19:42:49.484Z,6.85
2024-03-09T19:45:20.956Z,6.80
2024-03-09T19:47:49.769Z,6.76
2024-03-09T19:50:17.278Z,6.71
2024-03-09T19:52:48.707Z,6.66
2024-03-09T19:55:16.973Z,6.66
2024-03-09T19:57:44.120Z,6.62
2024-03-09T20:00:14.737Z,6.55
2024-03-09T20:02:41.833Z,6.51
2024-03-09T20:05:12.185Z,6.48
2024-03-09T20:07:39.341Z,6.43
2024-03-09T20:10:07.161Z,6.40
2024-03-09T20:12:34.708Z,6.36
2024-03-09T20:15:02.448Z,6.33
2024-03-09T20:17:28.997Z,6.31
2024-03-09T20:19:57.750Z,6.30
2024-03-09T20:22:25.094Z,6.26
2024-03-09T20:24:51.547Z,6.23
2024-03-09T20:27:17.930Z,6.21
2024-03-09T20:29:44.319Z,6.17
2024-03-09T20:32:11.198Z,6.17
2024-03-09T20:34:37.781Z,6.12
2024-03-09T20:37:04.399Z,6.12
2024-03-09T20:39:30.842Z,6.08
2024-03-09T20:41:57.212Z,6.06
2024-03-09T20:44:23.677Z,6.06
2024-03-09T20:46:50.265Z,6.05
2024-03-09T20:49:16.968Z,6.02
2024-03-09T20:51:43.359Z,6.00
2024-03-09T20:54:10.070Z,5.99
2024-03-09T20:56:38.363Z,5.98
2024-03-09T20:59:04.827Z,5.96
2024-03-09T21:01:31.542Z,5.94
2024-03-09T21:03:57.903Z,5.93
2024-03-09T21:06:24.401Z,5.89
2024-03-09T21:08:52.390Z,5.87
2024-03-09T21:11:18.870Z,5.84
2024-03-09T21:13:45.327Z,5.82
2024-03-09T21:16:11.891Z,5.80
2024-03-09T21:18:38.445Z,5.79
2024-03-09T21:21:05.294Z,5.77
2024-03-09T21:23:31.882Z,5.77
2024-03-09T21:25:58.432Z,5.76
2024-03-09T21:28:25.877Z,5.75
2024-03-09T21:30:53.729Z,5.71
2024-03-09T21:33:21.979Z,5.69
2024-03-09T21:35:48.364Z,5.68
2024-03-09T21:38:15.733Z,5.66
2024-03-09T21:40:42.338Z,5.64
2024-03-09T21:43:09.184Z,5.63
2024-03-09T21:45:36.166Z,5.63
2024-03-09T21:48:04.237Z,5.60
2024-03-09T21:50:31.096Z,5.58
2024-03-09T21:53:00.080Z,5.57
2024-03-09T21:55:27.370Z,5.55
2024-03-09T21:57:54.686Z,5.53
2024-03-09T22:00:21.627Z,5.49
2024-03-09T22:02:50.130Z,5.49
2024-03-09T22:05:20.894Z,5.47
2024-03-09T22:07:53.569Z,5.44
2024-03-09T22:10:22.654Z,5.41
2024-03-09T22:12:51.747Z,5.39
2024-03-09T22:15:18.767Z,5.53
2024-03-09T22:17:45.422Z,5.42
2024-03-09T22:20:16.321Z,5.36
2024-03-09T22:22:45.121Z,5.32
2024-03-09T22:25:16.263Z,5.33
2024-03-09T22:27:45.082Z,5.31
2024-03-09T22:30:13.038Z,5.26
2024-03-09T22:32:40.941Z,5.24
2024-03-09T22:35:11.598Z,5.23
2024-03-09T22:37:39.454Z,5.23
2024-03-09T22:40:14.109Z,5.22
2024-03-09T22:42:40.783Z,5.20
2024-03-09T22:45:08.982Z,5.18
2024-03-09T22:47:37.019Z,5.17
2024-03-09T22:50:04.473Z,5.13
2024-03-09T22:52:31.808Z,5.09
2024-03-09T22:54:58.373Z,5.07
2024-03-09T22:57:24.770Z,5.05
2024-03-09T22:59:51.915Z,5.04
2024-03-09T23:02:18.376Z,5.00
2024-03-09T23:04:44.894Z,4.97
2024-03-09T23:07:11.321Z,4.98
2024-03-09T23:09:40.642Z,4.92
2024-03-09T23:12:10.778Z,4.89
2024-03-09T23:14:38.496Z,4.89
2024-03-09T23:17:06.146Z,4.87
2024-03-09T23:19:32.719Z,4.85
2024-03-09T23:22:01.842Z,4.85
2024-03-09T23:24:29.276Z,4.80
2024-03-09T23:26:58.150Z,4.77
2024-03-09T23:29:26.610Z,4.77
2024-03-09T23:31:53.110Z,4.76
2024-03-09T23:34:22.592Z,4.72
2024-03-09T23:36:49.770Z,4.71
2024-03-09T23:39:16.733Z,4.71
2024-03-09T23:41:44.011Z,4.69
2024-03-09T23:44:13.779Z,4.67
2024-03-09T23:46:40.989Z,4.65
2024-03-09T23:49:10.506Z,4.65
2024-03-09T23:51:37.688Z,4.64
2024-03-09T23:54:05.746Z,4.64
2024-03-09T23:56:33.142Z,4.60
2024-03-09T23:59:00.273Z,4.59
